Time;durP1;ratioP1;P1;durP2;ratioP2;P2;SDS_P1;SDS_P2;PMS_P1;PMS_P2;Temp;Humidity;BMP_temperature;BMP_pressure;BME280_temperature;BME280_humidity;BME280_pressure;Samples;Min_cycle;Max_cycle;Signal;HPM_P1;HPM_P2
2021/11/19 00:00:09;;;;;;;;;;;;;;;;;;1009132;29;1645;-20
2021/11/19 00:00:54;;;;;;;;;;;;;;;;;;1014531;28;1458;-20
2021/11/19 00:01:26;;;;;;;;;;;;;;;;;;1023072;28;1105;-20
2021/11/19 00:01:58;;;;;;;;;;;;;;;;;;1021320;29;1084;-20
2021/11/19 00:02:30;;;;;;;;;;;;;;;;;;1021727;28;981;-19
2021/11/19 00:03:00;;;;;;;;;;;;;;;;;;1024840;28;1058;-20
2021/11/19 00:03:30;;;;;;;;;;;;;;;;;;1024243;28;1561;-19
2021/11/19 00:04:01;;;;;;;;;;;;;;;;;;1024960;28;1087;-19
2021/11/19 00:04:31;;;;;;;;;;;;;;;;;;1024427;28;1399;-19
2021/11/19 00:05:02;;;;;;;;;;;;;;;;;;1021370;29;1016;-19
2021/11/19 00:05:33;;;;;;;;;;;;;;;;;;1024649;28;1091;-20
2021/11/19 00:06:03;;;;;;;;;;;;;;;;;;1024063;28;1294;-20
2021/11/19 00:06:35;;;;;;;;;;;;;;;;;;1024352;28;1019;-20
2021/11/19 00:07:05;;;;;;;;;;;;;;;;;;1024579;28;1343;-19
2021/11/19 00:07:36;;;;;;;;;;;;;;;;;;1024221;28;1133;-19
2021/11/19 00:08:07;;;;;;;;;;;;;;;;;;1020635;28;1085;-19
2021/11/19 00:08:38;;;;;;;;;;;;;;;;;;1020809;29;1047;-20
2021/11/19 00:09:10;;;;;;;;;;;;;;;;;;1024532;28;1042;-20
2021/11/19 00:09:41;;;;;;;;;;;;;;;;;;1024526;28;1040;-19
2021/11/19 00:10:12;;;;;;;;;;;;;;;;;;1020117;29;1531;-19
2021/11/19 00:10:43;;;;;;;;;;;;;;;;;;1008900;29;1085;-19
2021/11/19 00:11:15;;;;;;;;;;;;;;;;;;1012173;29;1452;-19
2021/11/19 00:11:49;;;;;;;;;;;;;;;;;;1008784;29;1033;-20
2021/11/19 00:12:20;;;;;;;;;;;;;;;;;;1010974;29;1027;-20
2021/11/19 00:12:50;;;;;;;;;;;;;;;;;;1020250;29;1573;-19
2021/11/19 00:13:21;;;;;;;;;;;;;;;;;;1020764;29;1069;-20
2021/11/19 00:13:52;;;;;;;;;;;;;;;;;;1020629;28;1267;-19
2021/11/19 00:14:23;;;;;;;;;;;;;;;;;;1025251;28;1083;-19
2021/11/19 00:14:53;;;;;;;;;;;;;;;;;;1025520;28;1178;-20
2021/11/19 00:15:24;;;;;;;;;;;;;;;;;;1025248;28;1187;-19
2021/11/19 00:15:55;;;;;;;;;;;;;;;;;;1025062;28;1130;-19
2021/11/19 00:16:27;;;;;;;;;;;;;;;;;;1024804;28;1038;-20
2021/11/19 00:17:05;;;;;;;;;;;;;;;;;;1020084;29;1429;-22
2021/11/19 00:17:35;;;;;;;;;;;;;;;;;;1020684;29;1017;-20
2021/11/19 00:18:06;;;;;;;;;;;;;;;;;;1019829;29;1471;-20
2021/11/19 00:18:37;;;;;;;;;;;;;;;;;;1022915;28;1107;-19
2021/11/19 00:19:08;;;;;;;;;;;;;;;;;;1028313;28;1536;-19
2021/11/19 00:19:40;;;;;;;;;;;;;;;;;;1019916;29;1097;-19
2021/11/19 00:20:12;;;;;;;;;;;;;;;;;;1016047;29;1538;-20
2021/11/19 00:20:43;;;;;;;;;;;;;;;;;;1015954;29;1443;-19
2021/11/19 00:21:14;;;;;;;;;;;;;;;;;;1016930;29;1035;-20
2021/11/19 00:21:45;;;;;;;;;;;;;;;;;;1017452;28;963;-20
2021/11/19 00:22:17;;;;;;;;;;;;;;;;;;1023620;28;1374;-20
2021/11/19 00:22:48;;;;;;;;;;;;;;;;;;1020703;29;1214;-20
2021/11/19 00:23:18;;;;;;;;;;;;;;;;;;1020230;29;1112;-20
2021/11/19 00:23:51;;;;;;;;;;;;;;;;;;1016578;29;988;-20
2021/11/19 00:24:21;;;;;;;;;;;;;;;;;;1017023;29;979;-20
2021/11/19 00:24:52;;;;;;;;;;;;;;;;;;1019793;29;1343;-19
2021/11/19 00:25:23;;;;;;;;;;;;;;;;;;1016447;29;1349;-19
2021/11/19 00:25:54;;;;;;;;;;;;;;;;;;1015786;29;1423;-19
2021/11/19 00:26:26;;;;;;;;;;;;;;;;;;1016527;29;1127;-19
2021/11/19 00:26:56;;;;;;;;;;;;;;;;;;1012699;29;1437;-19
2021/11/19 00:27:27;;;;;;;;;;;;;;;;;;1015641;29;1352;-20
2021/11/19 00:27:59;;;;;;;;;;;;;;;;;;1004759;29;1907;-19
2021/11/19 00:28:30;;;;;;;;;;;;;;;;;;997633;29;1253;-20
2021/11/19 00:29:02;;;;;;;;;;;;;;;;;;1008628;29;1018;-19
2021/11/19 00:29:33;;;;;;;;;;;;;;;;;;1013077;29;960;-19
2021/11/19 00:30:09;;;;;;;;;;;;;;;;;;1008460;29;1348;-20
2021/11/19 00:30:40;;;;;;;;;;;;;;;;;;1010733;29;1114;-20
2021/11/19 00:31:12;;;;;;;;;;;;;;;;;;1006743;29;1246;-19
2021/11/19 00:31:43;;;;;;;;;;;;;;;;;;1006692;29;1397;-19
2021/11/19 00:32:13;;;;;;;;;;;;;;;;;;1013012;29;1043;-20
2021/11/19 00:32:45;;;;;;;;;;;;;;;;;;1017064;28;1110;-19
2021/11/19 00:33:15;;;;;;;;;;;;;;;;;;1020715;28;1120;-19
2021/11/19 00:33:47;;;;;;;;;;;;;;;;;;1012564;29;979;-20
2021/11/19 00:34:17;;;;;;;;;;;;;;;;;;1012716;29;990;-20
2021/11/19 00:34:49;;;;;;;;;;;;;;;;;;1008769;29;903;-19
2021/11/19 00:35:19;;;;;;;;;;;;;;;;;;1012659;29;966;-20
2021/11/19 00:35:51;;;;;;;;;;;;;;;;;;1012994;29;977;-20
2021/11/19 00:36:23;;;;;;;;;;;;;;;;;;1020961;29;1143;-19
2021/11/19 00:36:56;;;;;;;;;;;;;;;;;;1015567;29;1591;-20
2021/11/19 00:37:26;;;;;;;;;;;;;;;;;;1008246;29;1294;-20
2021/11/19 00:37:58;;;;;;;;;;;;;;;;;;1008310;29;1430;-20
2021/11/19 00:38:29;;;;;;;;;;;;;;;;;;1004080;29;1137;-20
2021/11/19 00:39:03;;;;;;;;;;;;;;;;;;1001439;29;1010;-20
2021/11/19 00:39:34;;;;;;;;;;;;;;;;;;1013164;29;1333;-20
2021/11/19 00:40:06;;;;;;;;;;;;;;;;;;1018156;28;1085;-19
2021/11/19 00:40:42;;;;;;;;;;;;;;;;;;1028619;28;1440;-20
2021/11/19 00:41:14;;;;;;;;;;;;;;;;;;1023647;28;1537;-19
2021/11/19 00:41:45;;;;;;;;;;;;;;;;;;1020559;29;1183;-20
2021/11/19 00:42:16;;;;;;;;;;;;;;;;;;1019918;29;1357;-19
2021/11/19 00:42:47;;;;;;;;;;;;;;;;;;1020896;28;1029;-19
2021/11/19 00:43:17;;;;;;;;;;;;;;;;;;1020416;29;975;-20
2021/11/19 00:43:48;;;;;;;;;;;;;;;;;;1019894;29;1488;-20
2021/11/19 00:44:20;;;;;;;;;;;;;;;;;;1020682;28;1173;-19
2021/11/19 00:44:53;;;;;;;;;;;;;;;;;;1016312;29;1347;-20
2021/11/19 00:45:24;;;;;;;;;;;;;;;;;;1016555;29;997;-20
2021/11/19 00:45:55;;;;;;;;;;;;;;;;;;1016576;29;2408;-20
2021/11/19 00:46:26;;;;;;;;;;;;;;;;;;1016207;29;1517;-19
2021/11/19 00:46:57;;;;;;;;;;;;;;;;;;1016589;29;1150;-19
2021/11/19 00:47:28;;;;;;;;;;;;;;;;;;1016569;29;1317;-20
2021/11/19 00:47:59;;;;;;;;;;;;;;;;;;1016366;28;1902;-20
2021/11/19 00:48:31;;;;;;;;;;;;;;;;;;1016539;29;1155;-20
2021/11/19 00:49:02;;;;;;;;;;;;;;;;;;1016450;29;1116;-20
2021/11/19 00:49:35;;;;;;;;;;;;;;;;;;1017071;29;1039;-20
2021/11/19 00:50:08;;;;;;;;;;;;;;;;;;1020564;29;983;-20
2021/11/19 00:51:02;;;;;;;;;;;;;;;;;;1016352;29;1163;-20
2021/11/19 00:51:34;;;;;;;;;;;;;;;;;;1002489;29;1188;-19
2021/11/19 00:52:06;;;;;;;;;;;;;;;;;;1016154;29;1066;-19
2021/11/19 00:52:37;;;;;;;;;;;;;;;;;;1004223;29;2383;-19
2021/11/19 00:53:08;;;;;;;;;;;;;;;;;;1001115;29;1282;-20
2021/11/19 00:53:42;;;;;;;;;;;;;;;;;;1004816;29;1008;-20
2021/11/19 00:54:14;;;;;;;;;;;;;;;;;;1005201;29;1448;-19
2021/11/19 00:54:45;;;;;;;;;;;;;;;;;;1012611;29;1000;-19
2021/11/19 00:55:15;;;;;;;;;;;;;;;;;;1013181;29;1348;-19
2021/11/19 00:55:46;;;;;;;;;;;;;;;;;;1016975;28;1472;-19
2021/11/19 00:56:17;;;;;;;;;;;;;;;;;;1028436;28;1135;-19
2021/11/19 00:56:50;;;;;;;;;;;;;;;;;;1025139;28;1020;-20
2021/11/19 00:57:21;;;;;;;;;;;;;;;;;;1016525;29;1150;-19
2021/11/19 00:57:53;;;;;;;;;;;;;;;;;;1017201;29;1342;-19
2021/11/19 00:58:24;;;;;;;;;;;;;;;;;;1016470;29;1455;-20
2021/11/19 00:58:55;;;;;;;;;;;;;;;;;;1008720;29;1407;-20
2021/11/19 00:59:27;;;;;;;;;;;;;;;;;;1008169;29;1020;-19
2021/11/19 00:59:58;;;;;;;;;;;;;;;;;;998296;29;1760;-19
2021/11/19 01:00:31;;;;;;;;;;;;;;;;;;1002097;29;1785;-20
2021/11/19 01:01:05;;;;;;;;;;;;;;;;;;1008819;29;1027;-19
2021/11/19 01:01:38;;;;;;;;;;;;;;;;;;1004751;29;1086;-19
2021/11/19 01:02:15;;;;;;;;;;;;;;;;;;1009530;29;1175;-20
2021/11/19 01:02:45;;;;;;;;;;;;;;;;;;1011111;29;1744;-19
2021/11/19 01:03:18;;;;;;;;;;;;;;;;;;1015047;29;1205;-19
2021/11/19 01:03:49;;;;;;;;;;;;;;;;;;1021280;28;1445;-19
2021/11/19 01:04:20;;;;;;;;;;;;;;;;;;1028401;28;1372;-19
2021/11/19 01:04:53;;;;;;;;;;;;;;;;;;1012514;29;1115;-19
2021/11/19 01:05:23;;;;;;;;;;;;;;;;;;1012251;29;1196;-19
2021/11/19 01:05:55;;;;;;;;;;;;;;;;;;1008871;29;1249;-19
2021/11/19 01:06:26;;;;;;;;;;;;;;;;;;1006134;29;1266;-19
2021/11/19 01:06:57;;;;;;;;;;;;;;;;;;1008380;29;1297;-20
2021/11/19 01:07:27;;;;;;;;;;;;;;;;;;1009002;29;1356;-20
2021/11/19 01:07:58;;;;;;;;;;;;;;;;;;1004579;29;1996;-19
2021/11/19 01:08:29;;;;;;;;;;;;;;;;;;1005136;29;1199;-19
2021/11/19 01:09:00;;;;;;;;;;;;;;;;;;1012512;29;1037;-20
2021/11/19 01:09:32;;;;;;;;;;;;;;;;;;1011871;29;1435;-19
2021/11/19 01:10:07;;;;;;;;;;;;;;;;;;1016967;29;1261;-19
2021/11/19 01:10:39;;;;;;;;;;;;;;;;;;1011514;29;1100;-19
2021/11/19 01:11:12;;;;;;;;;;;;;;;;;;1008417;29;1058;-20
2021/11/19 01:11:43;;;;;;;;;;;;;;;;;;1003942;29;1300;-19
2021/11/19 01:12:16;;;;;;;;;;;;;;;;;;1004421;29;1470;-20
2021/11/19 01:12:47;;;;;;;;;;;;;;;;;;1009314;29;1176;-20
2021/11/19 01:13:18;;;;;;;;;;;;;;;;;;1008530;29;970;-19
2021/11/19 01:13:51;;;;;;;;;;;;;;;;;;1004886;29;1036;-20
2021/11/19 01:14:24;;;;;;;;;;;;;;;;;;1004865;29;1100;-19
2021/11/19 01:14:59;;;;;;;;;;;;;;;;;;1001679;29;1068;-19
2021/11/19 01:15:33;;;;;;;;;;;;;;;;;;1007240;29;1227;-20
2021/11/19 01:16:07;;;;;;;;;;;;;;;;;;1012287;29;1466;-20
2021/11/19 01:16:40;;;;;;;;;;;;;;;;;;1013772;29;1153;-20
2021/11/19 01:17:30;;;;;;;;;;;;;;;;;;1016801;29;1295;-20
2021/11/19 01:18:20;;;;;;;;;;;;;;;;;;1014840;29;1115;-20
2021/11/19 01:18:54;;;;;;;;;;;;;;;;;;1016414;29;1167;-19
2021/11/19 01:19:45;;;;;;;;;;;;;;;;;;1016763;29;1300;-20
2021/11/19 01:20:25;;;;;;;;;;;;;;;;;;1012492;29;1070;-20
2021/11/19 01:21:02;;;;;;;;;;;;;;;;;;1008129;29;1573;-20
2021/11/19 01:21:35;;;;;;;;;;;;;;;;;;1012591;29;1207;-19
2021/11/19 01:22:11;;;;;;;;;;;;;;;;;;1010168;29;1281;-20
2021/11/19 01:22:44;;;;;;;;;;;;;;;;;;1014495;29;1223;-19
2021/11/19 01:23:15;;;;;;;;;;;;;;;;;;1020494;29;1260;-19
2021/11/19 01:23:46;;;;;;;;;;;;;;;;;;1016546;29;2280;-20
2021/11/19 01:24:18;;;;;;;;;;;;;;;;;;1016037;29;1315;-19
2021/11/19 01:24:49;;;;;;;;;;;;;;;;;;1013389;29;1146;-19
2021/11/19 01:25:22;;;;;;;;;;;;;;;;;;1020616;28;1359;-19
2021/11/19 01:25:55;;;;;;;;;;;;;;;;;;1011945;29;1502;-20
2021/11/19 01:26:30;;;;;;;;;;;;;;;;;;1011539;29;1494;-20
2021/11/19 01:27:01;;;;;;;;;;;;;;;;;;1006411;29;1667;-20
2021/11/19 01:27:31;;;;;;;;;;;;;;;;;;1000839;29;1390;-19
2021/11/19 01:28:02;;;;;;;;;;;;;;;;;;1005534;29;1911;-19
2021/11/19 01:28:33;;;;;;;;;;;;;;;;;;1015988;29;1227;-19
2021/11/19 01:29:06;;;;;;;;;;;;;;;;;;1007829;29;1483;-19
2021/11/19 01:29:37;;;;;;;;;;;;;;;;;;1008610;29;1324;-19
2021/11/19 01:30:09;;;;;;;;;;;;;;;;;;1009070;29;1755;-19
2021/11/19 01:30:45;;;;;;;;;;;;;;;;;;1004348;29;1852;-19
2021/11/19 01:31:18;;;;;;;;;;;;;;;;;;1003696;29;1296;-20
2021/11/19 01:31:54;;;;;;;;;;;;;;;;;;1007787;29;1315;-20
2021/11/19 01:32:34;;;;;;;;;;;;;;;;;;1014458;29;1691;-20
2021/11/19 01:33:14;;;;;;;;;;;;;;;;;;1017313;29;1502;-19
2021/11/19 01:33:54;;;;;;;;;;;;;;;;;;1013138;29;1344;-19
2021/11/19 01:34:45;;;;;;;;;;;;;;;;;;1016323;29;1046;-20
2021/11/19 01:35:27;;;;;;;;;;;;;;;;;;1017027;29;1335;-19
2021/11/19 01:36:23;;;;;;;;;;;;;;;;;;1013377;29;998;-20
2021/11/19 01:37:10;;;;;;;;;;;;;;;;;;1006846;29;1322;-20
2021/11/19 01:37:59;;;;;;;;;;;;;;;;;;1013435;29;1194;-19
2021/11/19 01:38:44;;;;;;;;;;;;;;;;;;1005851;29;1592;-20
2021/11/19 01:39:35;;;;;;;;;;;;;;;;;;1003942;29;1155;-19
2021/11/19 01:40:23;;;;;;;;;;;;;;;;;;1013480;29;1667;-20
2021/11/19 01:41:07;;;;;;;;;;;;;;;;;;1017391;29;1200;-20
2021/11/19 01:41:42;;;;;;;;;;;;;;;;;;1005587;29;1455;-19
2021/11/19 01:42:15;;;;;;;;;;;;;;;;;;1004775;29;1279;-21
2021/11/19 01:42:48;;;;;;;;;;;;;;;;;;1003510;29;1204;-19
2021/11/19 01:43:19;;;;;;;;;;;;;;;;;;1004376;29;1464;-20
2021/11/19 01:43:52;;;;;;;;;;;;;;;;;;1010184;29;1047;-20
2021/11/19 01:44:23;;;;;;;;;;;;;;;;;;1010369;29;1321;-20
2021/11/19 01:44:54;;;;;;;;;;;;;;;;;;1013638;29;1097;-20
2021/11/19 01:45:27;;;;;;;;;;;;;;;;;;1013007;29;1333;-19
2021/11/19 01:45:59;;;;;;;;;;;;;;;;;;1014015;29;1224;-20
2021/11/19 01:46:34;;;;;;;;;;;;;;;;;;1013025;29;1412;-19
2021/11/19 01:47:11;;;;;;;;;;;;;;;;;;1010712;29;1171;-19
2021/11/19 01:47:45;;;;;;;;;;;;;;;;;;1001753;29;1927;-19
2021/11/19 01:48:17;;;;;;;;;;;;;;;;;;1002788;29;1460;-20
2021/11/19 01:48:50;;;;;;;;;;;;;;;;;;995508;29;1454;-20
2021/11/19 01:49:21;;;;;;;;;;;;;;;;;;998967;29;1437;-20
2021/11/19 01:49:51;;;;;;;;;;;;;;;;;;1005654;29;2551;-20
2021/11/19 01:50:28;;;;;;;;;;;;;;;;;;1005881;29;1170;-20
2021/11/19 01:51:01;;;;;;;;;;;;;;;;;;1010092;29;1479;-19
2021/11/19 01:51:45;;;;;;;;;;;;;;;;;;1012137;29;1289;-20
2021/11/19 01:52:18;;;;;;;;;;;;;;;;;;1012515;29;1477;-20
2021/11/19 01:52:54;;;;;;;;;;;;;;;;;;1013389;29;1043;-20
2021/11/19 01:53:31;;;;;;;;;;;;;;;;;;1009515;29;1547;-20
2021/11/19 01:54:09;;;;;;;;;;;;;;;;;;1004988;29;1333;-19
2021/11/19 01:54:54;;;;;;;;;;;;;;;;;;1013125;29;1154;-19
2021/11/19 01:55:28;;;;;;;;;;;;;;;;;;1016886;29;1274;-20
2021/11/19 01:56:06;;;;;;;;;;;;;;;;;;1013459;29;1195;-20
2021/11/19 01:56:42;;;;;;;;;;;;;;;;;;1006590;29;1388;-20
2021/11/19 01:57:25;;;;;;;;;;;;;;;;;;1008341;29;1758;-19
2021/11/19 01:58:28;;;;;;;;;;;;;;;;;;1001738;29;1092;-19
2021/11/19 01:59:11;;;;;;;;;;;;;;;;;;993939;29;1235;-20
2021/11/19 01:59:50;;;;;;;;;;;;;;;;;;996059;29;979;-20
2021/11/19 02:00:20;;;;;;;;;;;;;;;;;;1009074;29;1582;-20
2021/11/19 02:00:58;;;;;;;;;;;;;;;;;;1007755;29;1063;-19
2021/11/19 02:01:42;;;;;;;;;;;;;;;;;;1011564;29;1408;-19
2021/11/19 02:02:16;;;;;;;;;;;;;;;;;;1012473;29;1280;-20
2021/11/19 02:02:48;;;;;;;;;;;;;;;;;;1016490;29;1580;-20
2021/11/19 02:03:29;;;;;;;;;;;;;;;;;;1016936;29;1362;-20
2021/11/19 02:04:03;;;;;;;;;;;;;;;;;;1015295;29;1293;-20
2021/11/19 02:04:39;;;;;;;;;;;;;;;;;;1005114;29;1545;-19
2021/11/19 02:05:14;;;;;;;;;;;;;;;;;;1003828;29;1134;-20
2021/11/19 02:05:55;;;;;;;;;;;;;;;;;;1005383;29;1164;-19
2021/11/19 02:06:29;;;;;;;;;;;;;;;;;;1012938;29;1203;-19
2021/11/19 02:07:17;;;;;;;;;;;;;;;;;;1010115;29;1385;-20
2021/11/19 02:08:10;;;;;;;;;;;;;;;;;;1008896;29;1914;-19
2021/11/19 02:08:45;;;;;;;;;;;;;;;;;;1003846;29;1316;-20
2021/11/19 02:09:28;;;;;;;;;;;;;;;;;;1015141;28;1479;-19
2021/11/19 02:10:14;;;;;;;;;;;;;;;;;;1024009;28;1351;-19
2021/11/19 02:10:55;;;;;;;;;;;;;;;;;;1020926;29;1896;-20
2021/11/19 02:11:27;;;;;;;;;;;;;;;;;;1021400;29;1273;-20
2021/11/19 02:12:04;;;;;;;;;;;;;;;;;;1016930;29;1044;-20
2021/11/19 02:12:45;;;;;;;;;;;;;;;;;;1016612;29;1430;-20
2021/11/19 02:13:35;;;;;;;;;;;;;;;;;;1019301;29;1237;-20
2021/11/19 02:14:06;;;;;;;;;;;;;;;;;;1017080;29;1253;-20
2021/11/19 02:14:39;;;;;;;;;;;;;;;;;;1017510;29;1179;-19
2021/11/19 02:15:16;;;;;;;;;;;;;;;;;;1023845;28;1300;-19
2021/11/19 02:16:02;;;;;;;;;;;;;;;;;;1020775;29;1515;-20
2021/11/19 02:16:35;;;;;;;;;;;;;;;;;;1017094;29;971;-20
2021/11/19 02:17:08;;;;;;;;;;;;;;;;;;1009602;29;1134;-20
2021/11/19 02:17:39;;;;;;;;;;;;;;;;;;1002895;29;1313;-20
2021/11/19 02:18:17;;;;;;;;;;;;;;;;;;1005833;29;1630;-19
2021/11/19 02:19:06;;;;;;;;;;;;;;;;;;1017999;29;1126;-20
2021/11/19 02:19:39;;;;;;;;;;;;;;;;;;1017108;29;1069;-20
2021/11/19 02:20:14;;;;;;;;;;;;;;;;;;1020676;29;1746;-19
2021/11/19 02:20:47;;;;;;;;;;;;;;;;;;1021364;29;1166;-20
2021/11/19 02:21:38;;;;;;;;;;;;;;;;;;1009221;29;1183;-19
2021/11/19 02:22:14;;;;;;;;;;;;;;;;;;1012907;29;1293;-19
2021/11/19 02:22:50;;;;;;;;;;;;;;;;;;1016729;29;1299;-19
2021/11/19 02:23:24;;;;;;;;;;;;;;;;;;1021198;29;1221;-19
2021/11/19 02:24:05;;;;;;;;;;;;;;;;;;1018801;29;897;-19
2021/11/19 02:24:48;;;;;;;;;;;;;;;;;;1016524;29;1502;-20
2021/11/19 02:25:33;;;;;;;;;;;;;;;;;;1020989;29;1227;-19
2021/11/19 02:26:09;;;;;;;;;;;;;;;;;;1020588;29;1412;-19
2021/11/19 02:26:42;;;;;;;;;;;;;;;;;;1013215;29;1179;-20
2021/11/19 02:27:16;;;;;;;;;;;;;;;;;;1012766;29;1525;-19
2021/11/19 02:27:49;;;;;;;;;;;;;;;;;;1008965;29;1910;-19
2021/11/19 02:28:23;;;;;;;;;;;;;;;;;;1012534;29;1211;-19
2021/11/19 02:28:53;;;;;;;;;;;;;;;;;;1017452;29;1333;-19
2021/11/19 02:29:26;;;;;;;;;;;;;;;;;;1017225;29;1190;-19
2021/11/19 02:30:19;;;;;;;;;;;;;;;;;;1010059;29;1151;-20
2021/11/19 02:30:59;;;;;;;;;;;;;;;;;;1010590;29;1436;-20
2021/11/19 02:31:43;;;;;;;;;;;;;;;;;;1013973;29;1319;-20
2021/11/19 02:32:22;;;;;;;;;;;;;;;;;;1016416;29;1836;-20
2021/11/19 02:33:04;;;;;;;;;;;;;;;;;;1017051;29;1363;-20
2021/11/19 02:33:35;;;;;;;;;;;;;;;;;;1017176;29;1154;-20
2021/11/19 02:34:06;;;;;;;;;;;;;;;;;;1020160;29;1530;-20
2021/11/19 02:34:37;;;;;;;;;;;;;;;;;;1016586;29;1533;-19
2021/11/19 02:35:20;;;;;;;;;;;;;;;;;;1013634;29;1629;-20
2021/11/19 02:35:59;;;;;;;;;;;;;;;;;;1014921;29;1179;-20
2021/11/19 02:36:36;;;;;;;;;;;;;;;;;;1016225;29;1309;-20
2021/11/19 02:37:16;;;;;;;;;;;;;;;;;;1012175;29;1175;-20
2021/11/19 02:37:54;;;;;;;;;;;;;;;;;;1008714;29;1665;-21
2021/11/19 02:38:29;;;;;;;;;;;;;;;;;;1005273;29;1138;-19
2021/11/19 02:39:20;;;;;;;;;;;;;;;;;;1007810;29;1180;-20
2021/11/19 02:39:53;;;;;;;;;;;;;;;;;;1012143;29;1193;-19
2021/11/19 02:40:26;;;;;;;;;;;;;;;;;;1009247;29;1300;-20
2021/11/19 02:40:57;;;;;;;;;;;;;;;;;;1009114;29;1423;-19
2021/11/19 02:41:30;;;;;;;;;;;;;;;;;;1006059;29;1274;-20
2021/11/19 02:42:03;;;;;;;;;;;;;;;;;;1006563;29;1550;-19
2021/11/19 02:42:39;;;;;;;;;;;;;;;;;;1017122;29;1011;-19
2021/11/19 02:43:17;;;;;;;;;;;;;;;;;;1018460;29;1353;-20
2021/11/19 02:43:51;;;;;;;;;;;;;;;;;;1022658;28;1041;-19
2021/11/19 02:44:23;;;;;;;;;;;;;;;;;;1022689;28;1453;-19
2021/11/19 02:44:57;;;;;;;;;;;;;;;;;;1017985;29;1686;-20
2021/11/19 02:45:33;;;;;;;;;;;;;;;;;;1017020;29;1356;-19
2021/11/19 02:46:06;;;;;;;;;;;;;;;;;;1012699;29;1530;-20
2021/11/19 02:46:40;;;;;;;;;;;;;;;;;;1006472;29;1446;-20
2021/11/19 02:47:16;;;;;;;;;;;;;;;;;;1008962;29;1399;-19
2021/11/19 02:47:48;;;;;;;;;;;;;;;;;;1003188;29;1908;-20
2021/11/19 02:48:23;;;;;;;;;;;;;;;;;;1007379;29;2098;-19
2021/11/19 02:48:54;;;;;;;;;;;;;;;;;;1013123;29;1524;-20
2021/11/19 02:49:25;;;;;;;;;;;;;;;;;;1021918;28;1018;-20
2021/11/19 02:49:57;;;;;;;;;;;;;;;;;;1017638;29;1004;-19
2021/11/19 02:50:27;;;;;;;;;;;;;;;;;;1016269;29;1704;-20
2021/11/19 02:51:00;;;;;;;;;;;;;;;;;;1016902;29;1170;-19
2021/11/19 02:51:34;;;;;;;;;;;;;;;;;;1009574;29;1444;-19
2021/11/19 02:52:07;;;;;;;;;;;;;;;;;;1016831;29;1229;-20
2021/11/19 02:52:41;;;;;;;;;;;;;;;;;;1013092;29;1601;-20
2021/11/19 02:53:14;;;;;;;;;;;;;;;;;;1011334;29;1838;-20
2021/11/19 02:53:47;;;;;;;;;;;;;;;;;;1013089;29;1234;-20
2021/11/19 02:54:18;;;;;;;;;;;;;;;;;;1012385;29;1583;-20
2021/11/19 02:54:50;;;;;;;;;;;;;;;;;;1012064;29;1164;-19
2021/11/19 02:55:23;;;;;;;;;;;;;;;;;;1013747;29;1040;-20
2021/11/19 02:55:56;;;;;;;;;;;;;;;;;;1019908;29;1383;-20
2021/11/19 02:56:28;;;;;;;;;;;;;;;;;;1013736;29;1145;-20
2021/11/19 02:57:00;;;;;;;;;;;;;;;;;;1016430;29;1480;-19
2021/11/19 02:57:31;;;;;;;;;;;;;;;;;;1009640;29;1279;-20
2021/11/19 02:58:04;;;;;;;;;;;;;;;;;;1005470;29;1234;-21
2021/11/19 02:58:36;;;;;;;;;;;;;;;;;;1004627;29;1515;-19
2021/11/19 02:59:07;;;;;;;;;;;;;;;;;;996882;29;1168;-20
2021/11/19 02:59:38;;;;;;;;;;;;;;;;;;999382;29;1490;-19
2021/11/19 03:00:11;;;;;;;;;;;;;;;;;;1010742;28;1183;-19
2021/11/19 03:00:48;;;;;;;;;;;;;;;;;;1021253;29;1261;-19
2021/11/19 03:01:23;;;;;;;;;;;;;;;;;;1022682;28;1241;-21
2021/11/19 03:02:02;;;;;;;;;;;;;;;;;;1021114;28;1299;-19
2021/11/19 03:02:32;;;;;;;;;;;;;;;;;;1023945;28;1210;-19
2021/11/19 03:03:23;;;;;;;;;;;;;;;;;;1020845;29;1186;-19
2021/11/19 03:04:00;;;;;;;;;;;;;;;;;;1016582;29;1210;-19
2021/11/19 03:04:35;;;;;;;;;;;;;;;;;;1017160;29;1025;-19
2021/11/19 03:05:25;;;;;;;;;;;;;;;;;;1016143;29;1524;-20
2021/11/19 03:05:56;;;;;;;;;;;;;;;;;;1009017;29;1311;-19
2021/11/19 03:06:27;;;;;;;;;;;;;;;;;;1005208;29;1509;-19
2021/11/19 03:06:58;;;;;;;;;;;;;;;;;;1009802;29;1354;-20
2021/11/19 03:07:31;;;;;;;;;;;;;;;;;;1020551;29;1076;-19
2021/11/19 03:08:01;;;;;;;;;;;;;;;;;;1016241;29;2028;-19
2021/11/19 03:08:52;;;;;;;;;;;;;;;;;;1008982;29;1374;-19
2021/11/19 03:09:25;;;;;;;;;;;;;;;;;;1013057;29;1017;-20
2021/11/19 03:10:02;;;;;;;;;;;;;;;;;;1012653;29;1264;-20
2021/11/19 03:10:55;;;;;;;;;;;;;;;;;;1012932;29;1349;-19
2021/11/19 03:11:25;;;;;;;;;;;;;;;;;;1008414;29;1302;-20
2021/11/19 03:11:56;;;;;;;;;;;;;;;;;;1012890;29;1189;-19
2021/11/19 03:12:28;;;;;;;;;;;;;;;;;;1009998;29;1299;-20
2021/11/19 03:12:59;;;;;;;;;;;;;;;;;;1009355;29;1393;-19
2021/11/19 03:13:31;;;;;;;;;;;;;;;;;;1013042;29;1074;-20
2021/11/19 03:14:04;;;;;;;;;;;;;;;;;;1008493;29;1278;-19
2021/11/19 03:14:35;;;;;;;;;;;;;;;;;;1008745;29;1072;-20
2021/11/19 03:15:08;;;;;;;;;;;;;;;;;;1013017;29;1251;-20
2021/11/19 03:15:43;;;;;;;;;;;;;;;;;;1012708;29;1692;-20
2021/11/19 03:16:14;;;;;;;;;;;;;;;;;;1005929;29;1178;-20
2021/11/19 03:16:45;;;;;;;;;;;;;;;;;;1008925;29;1367;-19
2021/11/19 03:17:16;;;;;;;;;;;;;;;;;;1008465;29;1180;-20
2021/11/19 03:17:47;;;;;;;;;;;;;;;;;;1002536;29;1159;-20
2021/11/19 03:18:19;;;;;;;;;;;;;;;;;;1004954;29;1398;-20
2021/11/19 03:18:52;;;;;;;;;;;;;;;;;;1005160;29;1248;-20
2021/11/19 03:19:23;;;;;;;;;;;;;;;;;;1009051;29;1295;-19
2021/11/19 03:19:56;;;;;;;;;;;;;;;;;;1009998;29;1175;-20
2021/11/19 03:20:27;;;;;;;;;;;;;;;;;;1012239;29;1352;-20
2021/11/19 03:20:58;;;;;;;;;;;;;;;;;;1009444;29;1029;-19
2021/11/19 03:21:30;;;;;;;;;;;;;;;;;;1013147;29;977;-19
2021/11/19 03:22:01;;;;;;;;;;;;;;;;;;1013299;29;1230;-19
2021/11/19 03:22:31;;;;;;;;;;;;;;;;;;1016579;29;1284;-20
2021/11/19 03:23:02;;;;;;;;;;;;;;;;;;1013006;29;2392;-20
2021/11/19 03:23:33;;;;;;;;;;;;;;;;;;1016407;29;1444;-19
2021/11/19 03:24:05;;;;;;;;;;;;;;;;;;1016730;29;1044;-19
2021/11/19 03:24:35;;;;;;;;;;;;;;;;;;1009113;29;1210;-19
2021/11/19 03:25:07;;;;;;;;;;;;;;;;;;1008465;29;1177;-20
2021/11/19 03:25:40;;;;;;;;;;;;;;;;;;1008777;29;1082;-20
2021/11/19 03:26:13;;;;;;;;;;;;;;;;;;1012334;29;1326;-19
2021/11/19 03:26:44;;;;;;;;;;;;;;;;;;1012613;29;1221;-20
2021/11/19 03:27:16;;;;;;;;;;;;;;;;;;1009163;29;1303;-19
2021/11/19 03:27:56;;;;;;;;;;;;;;;;;;1008557;29;1970;-19
2021/11/19 03:28:32;;;;;;;;;;;;;;;;;;1005329;29;1153;-19
2021/11/19 03:29:04;;;;;;;;;;;;;;;;;;1008009;29;1436;-20
2021/11/19 03:29:35;;;;;;;;;;;;;;;;;;1009025;29;1569;-19
2021/11/19 03:30:07;;;;;;;;;;;;;;;;;;1009778;29;1454;-19
2021/11/19 03:30:40;;;;;;;;;;;;;;;;;;1012478;29;1306;-20
2021/11/19 03:31:13;;;;;;;;;;;;;;;;;;1009074;29;1246;-19
2021/11/19 03:31:43;;;;;;;;;;;;;;;;;;1005492;29;1188;-20
2021/11/19 03:32:19;;;;;;;;;;;;;;;;;;1008035;29;1004;-19
2021/11/19 03:32:50;;;;;;;;;;;;;;;;;;1010053;29;1179;-20
2021/11/19 03:33:25;;;;;;;;;;;;;;;;;;1010051;29;1556;-19
2021/11/19 03:33:57;;;;;;;;;;;;;;;;;;1012892;29;1217;-19
2021/11/19 03:34:27;;;;;;;;;;;;;;;;;;1008562;29;1381;-19
2021/11/19 03:34:59;;;;;;;;;;;;;;;;;;1009745;29;1296;-20
2021/11/19 03:35:30;;;;;;;;;;;;;;;;;;1004737;29;1297;-19
2021/11/19 03:36:02;;;;;;;;;;;;;;;;;;989184;29;1255;-20
2021/11/19 03:36:33;;;;;;;;;;;;;;;;;;990443;29;987;-19
2021/11/19 03:37:05;;;;;;;;;;;;;;;;;;997449;29;1337;-20
2021/11/19 03:37:36;;;;;;;;;;;;;;;;;;1001503;29;1079;-19
2021/11/19 03:38:07;;;;;;;;;;;;;;;;;;1005122;29;1183;-19
2021/11/19 03:38:39;;;;;;;;;;;;;;;;;;1004831;29;1441;-19
2021/11/19 03:39:10;;;;;;;;;;;;;;;;;;1009165;29;1176;-20
2021/11/19 03:39:41;;;;;;;;;;;;;;;;;;1012762;29;1350;-19
2021/11/19 03:40:16;;;;;;;;;;;;;;;;;;1019988;29;1073;-20
2021/11/19 03:40:47;;;;;;;;;;;;;;;;;;1012938;29;1477;-19
2021/11/19 03:41:19;;;;;;;;;;;;;;;;;;1016304;29;1384;-19
2021/11/19 03:41:50;;;;;;;;;;;;;;;;;;1012994;29;1042;-20
2021/11/19 03:42:21;;;;;;;;;;;;;;;;;;1013475;29;1081;-19
2021/11/19 03:42:53;;;;;;;;;;;;;;;;;;1016721;29;1205;-19
2021/11/19 03:43:26;;;;;;;;;;;;;;;;;;1012502;29;1027;-19
2021/11/19 03:43:59;;;;;;;;;;;;;;;;;;1008730;29;1039;-19
2021/11/19 03:44:35;;;;;;;;;;;;;;;;;;1006169;29;1155;-20
2021/11/19 03:45:07;;;;;;;;;;;;;;;;;;1004494;29;1319;-20
2021/11/19 03:45:40;;;;;;;;;;;;;;;;;;1009716;29;1282;-19
2021/11/19 03:46:12;;;;;;;;;;;;;;;;;;1009134;29;1159;-20
2021/11/19 03:46:46;;;;;;;;;;;;;;;;;;1009922;29;1186;-19
2021/11/19 03:47:36;;;;;;;;;;;;;;;;;;1015638;29;1469;-21
2021/11/19 03:48:08;;;;;;;;;;;;;;;;;;1010972;29;1998;-20
2021/11/19 03:48:39;;;;;;;;;;;;;;;;;;1009698;29;1261;-20
2021/11/19 03:49:11;;;;;;;;;;;;;;;;;;1012159;29;1309;-20
2021/11/19 03:49:44;;;;;;;;;;;;;;;;;;1013044;29;1324;-21
2021/11/19 03:50:17;;;;;;;;;;;;;;;;;;1008654;29;1068;-20
2021/11/19 03:50:49;;;;;;;;;;;;;;;;;;1007727;29;1458;-20
2021/11/19 03:51:28;;;;;;;;;;;;;;;;;;1005904;29;1308;-21
2021/11/19 03:52:03;;;;;;;;;;;;;;;;;;1012348;29;884;-20
2021/11/19 03:52:35;;;;;;;;;;;;;;;;;;1006452;29;1415;-21
2021/11/19 03:53:08;;;;;;;;;;;;;;;;;;1007530;29;1449;-20
2021/11/19 03:53:39;;;;;;;;;;;;;;;;;;1005139;29;1187;-21
2021/11/19 03:54:12;;;;;;;;;;;;;;;;;;1007449;29;1521;-21
2021/11/19 03:54:45;;;;;;;;;;;;;;;;;;1008503;29;1140;-21
2021/11/19 03:55:19;;;;;;;;;;;;;;;;;;1008626;29;1272;-21
2021/11/19 03:55:50;;;;;;;;;;;;;;;;;;1004832;29;1333;-20
2021/11/19 03:56:23;;;;;;;;;;;;;;;;;;1007067;29;1457;-21
2021/11/19 03:56:55;;;;;;;;;;;;;;;;;;1012431;29;1274;-21
2021/11/19 03:57:27;;;;;;;;;;;;;;;;;;1012576;29;959;-21